Time;durP1;ratioP1;P1;durP2;ratioP2;P2;SDS_P1;SDS_P2;PMS_P1;PMS_P2;Temp;Humidity;BMP_temperature;BMP_pressure;BME280_temperature;BME280_humidity;BME280_pressure;Samples;Min_cycle;Max_cycle;Signal;HPM_P1;HPM_P2
2023/11/09 00:00:15;;;;;;;8.75;6.10;;;;;;;6.09;90.26;97656.50;4167567;28;20204;-86
2023/11/09 00:02:18;;;;;;;6.65;5.43;;;;;;;6.08;90.04;97655.63;4185154;28;20671;-87
2023/11/09 00:04:22;;;;;;;8.43;5.80;;;;;;;6.08;90.72;97655.63;4182422;28;20228;-87
2023/11/09 00:06:24;;;;;;;11.57;5.93;;;;;;;6.07;90.39;97647.16;4172805;28;20679;-87
2023/11/09 00:08:30;;;;;;;10.23;5.68;;;;;;;6.04;90.14;97649.91;4184405;28;20262;-86
2023/11/09 00:10:35;;;;;;;6.80;5.35;;;;;;;6.03;89.93;97645.66;4174456;28;20255;-86
2023/11/09 00:12:37;;;;;;;7.85;5.40;;;;;;;6.03;90.42;97645.66;4186578;28;20261;-87
2023/11/09 00:14:40;;;;;;;8.57;5.60;;;;;;;6.01;90.00;97637.16;4175634;28;20208;-87
2023/11/09 00:16:46;;;;;;;6.15;4.90;;;;;;;6.00;89.92;97632.88;4185172;28;20216;-86
2023/11/09 00:18:49;;;;;;;7.55;5.10;;;;;;;5.98;90.19;97630.38;4183903;28;20268;-86
2023/11/09 00:20:53;;;;;;;6.75;5.40;;;;;;;5.99;89.95;97634.66;4171529;28;20247;-86
2023/11/09 00:22:56;;;;;;;10.35;5.68;;;;;;;5.98;89.92;97626.97;4185060;28;20207;-86
2023/11/09 00:24:58;;;;;;;9.32;5.40;;;;;;;5.94;90.54;97622.88;4205970;28;20219;-87
2023/11/09 00:27:04;;;;;;;9.80;5.07;;;;;;;5.94;89.97;97631.50;4181706;28;20201;-86
2023/11/09 00:29:07;;;;;;;14.07;6.13;;;;;;;5.93;90.08;97623.81;4186732;28;20200;-87
2023/11/09 00:31:10;;;;;;;8.88;5.30;;;;;;;5.93;90.86;97623.81;4203670;28;20225;-87
2023/11/09 00:33:14;;;;;;;8.27;5.13;;;;;;;5.93;90.46;97627.22;4204188;28;20202;-86
2023/11/09 00:35:19;;;;;;;5.85;4.63;;;;;;;5.93;90.21;97623.81;4168961;28;20205;-86
2023/11/09 00:37:23;;;;;;;7.53;5.20;;;;;;;5.94;90.11;97622.88;4187395;28;20198;-86
2023/11/09 00:39:26;;;;;;;7.57;5.22;;;;;;;5.89;90.13;97617.97;4191499;28;20209;-86
2023/11/09 00:41:29;;;;;;;7.30;4.72;;;;;;;5.87;90.61;97613.81;4201822;28;20243;-87
2023/11/09 00:43:34;;;;;;;7.20;4.82;;;;;;;5.90;90.11;97618.81;4169169;28;20202;-86
2023/11/09 00:45:37;;;;;;;8.20;4.43;;;;;;;5.90;90.82;97617.06;4174193;28;20265;-86
2023/11/09 00:47:41;;;;;;;6.60;4.57;;;;;;;5.87;90.54;97624.19;4171997;28;20278;-86
2023/11/09 00:49:43;;;;;;;9.35;5.28;;;;;;;5.83;90.18;97609.75;4185646;28;20222;-86
2023/11/09 00:51:46;;;;;;;8.30;5.00;;;;;;;5.81;89.68;97609.81;4187017;28;20315;-87
2023/11/09 00:53:50;;;;;;;5.70;5.10;;;;;;;5.81;90.97;97614.19;4198154;28;20299;-87
2023/11/09 00:55:53;;;;;;;5.53;4.55;;;;;;;5.79;90.42;97605.69;4181444;28;20238;-87
2023/11/09 00:57:56;;;;;;;9.60;5.05;;;;;;;5.77;90.52;97610.94;4185749;28;20273;-87
2023/11/09 01:00:02;;;;;;;6.57;4.55;;;;;;;5.75;90.35;97606.75;4181019;28;20208;-86
2023/11/09 01:02:07;;;;;;;5.05;4.10;;;;;;;5.73;90.91;97600.81;4164742;28;20667;-86
2023/11/09 01:04:11;;;;;;;8.00;4.63;;;;;;;5.68;89.85;97592.47;4174621;28;20219;-87
2023/11/09 01:06:15;;;;;;;5.38;4.20;;;;;;;5.66;90.41;97586.56;4173093;28;20216;-86
2023/11/09 01:08:17;;;;;;;7.95;4.72;;;;;;;5.66;90.10;97589.16;4191874;28;20262;-86
2023/11/09 01:10:21;;;;;;;6.50;4.63;;;;;;;5.64;90.35;97588.41;4162853;28;20257;-87
2023/11/09 01:12:25;;;;;;;7.57;4.85;;;;;;;5.63;90.61;97590.16;4187089;28;20204;-86
2023/11/09 01:14:28;;;;;;;5.55;4.35;;;;;;;5.62;90.35;97591.09;4172485;28;20286;-86
2023/11/09 01:16:32;;;;;;;6.72;4.78;;;;;;;5.61;90.93;97583.41;4190541;28;20200;-86
2023/11/09 01:18:36;;;;;;;5.95;4.20;;;;;;;5.60;90.66;97579.16;4199056;28;20223;-87
2023/11/09 01:20:39;;;;;;;6.90;4.07;;;;;;;5.59;90.72;97572.31;4170269;28;20634;-86
2023/11/09 01:22:42;;;;;;;5.45;4.20;;;;;;;5.59;90.54;97572.31;4191972;28;20211;-86
2023/11/09 01:24:46;;;;;;;6.20;4.50;;;;;;;5.61;91.04;97573.06;4197334;28;20339;-87
2023/11/09 01:26:49;;;;;;;8.07;4.55;;;;;;;5.58;91.09;97575.84;4185650;28;20665;-87
2023/11/09 01:28:52;;;;;;;8.10;5.35;;;;;;;5.59;90.93;97567.13;4186791;28;20614;-87
2023/11/09 01:30:56;;;;;;;5.05;4.35;;;;;;;5.58;91.04;97572.38;4173000;28;20226;-87
2023/11/09 01:33:03;;;;;;;5.40;4.25;;;;;;;5.57;90.57;97565.56;4175236;28;20206;-86
2023/11/09 01:35:07;;;;;;;6.72;4.68;;;;;;;5.56;90.47;97567.31;4188380;28;21913;-86
2023/11/09 01:37:11;;;;;;;6.20;4.30;;;;;;;5.56;91.34;97569.91;4171178;28;20604;-86
2023/11/09 01:39:15;;;;;;;6.38;4.40;;;;;;;5.56;90.77;97561.31;4201719;28;20298;-86
2023/11/09 01:41:18;;;;;;;7.40;5.10;;;;;;;5.53;90.81;97557.13;4190206;28;20227;-86
2023/11/09 01:43:22;;;;;;;9.95;5.68;;;;;;;5.51;91.07;97553.81;4187931;28;20261;-86
2023/11/09 01:45:25;;;;;;;7.57;5.05;;;;;;;5.49;91.10;97555.66;4197683;28;20317;-86
2023/11/09 01:47:29;;;;;;;6.97;5.00;;;;;;;5.49;91.76;97553.09;4187205;28;20301;-86
2023/11/09 01:49:35;;;;;;;9.35;4.88;;;;;;;5.50;92.11;97546.97;4172753;28;20195;-86
2023/11/09 01:51:39;;;;;;;12.82;5.07;;;;;;;5.51;91.37;97543.47;4177679;28;20197;-87
2023/11/09 01:53:43;;;;;;;6.28;4.85;;;;;;;5.51;91.08;97543.47;4184887;28;20212;-86
2023/11/09 01:55:45;;;;;;;6.18;4.78;;;;;;;5.50;91.58;97544.38;4189783;28;20300;-86
2023/11/09 01:57:49;;;;;;;6.50;4.78;;;;;;;5.50;91.42;97531.47;4189715;28;20194;-87
2023/11/09 01:59:53;;;;;;;7.50;4.80;;;;;;;5.51;91.12;97533.13;4186210;28;20555;-86
2023/11/09 02:01:57;;;;;;;5.88;4.20;;;;;;;5.47;91.44;97531.63;4176519;28;20194;-86
2023/11/09 02:04:00;;;;;;;6.75;4.47;;;;;;;5.49;91.52;97528.97;4193414;28;20561;-86
2023/11/09 02:06:09;;;;;;;6.40;4.25;;;;;;;5.47;91.44;97523.88;4181505;28;20306;-86
2023/11/09 02:08:12;;;;;;;5.65;4.47;;;;;;;5.45;91.49;97528.31;4175956;28;20210;-86
2023/11/09 02:10:15;;;;;;;7.47;4.75;;;;;;;5.41;90.60;97516.50;4193698;28;20236;-86
2023/11/09 02:12:18;;;;;;;14.45;4.70;;;;;;;5.40;90.82;97519.19;4179197;28;20313;-86
2023/11/09 02:14:22;;;;;;;5.57;4.53;;;;;;;5.39;90.90;97513.16;4164466;28;20198;-87
2023/11/09 02:16:25;;;;;;;10.52;4.93;;;;;;;5.36;90.58;97508.16;4192810;28;20574;-86
2023/11/09 02:18:31;;;;;;;6.00;4.57;;;;;;;5.36;90.82;97499.56;4172703;28;20202;-86
2023/11/09 02:20:36;;;;;;;6.85;4.13;;;;;;;5.35;91.20;97491.00;4187808;28;20210;-86
2023/11/09 02:22:42;;;;;;;4.95;4.13;;;;;;;5.36;91.33;97486.66;4183579;28;20237;-86
2023/11/09 02:24:47;;;;;;;6.05;4.45;;;;;;;5.37;91.40;97488.31;4209911;28;20197;-86
2023/11/09 02:26:50;;;;;;;6.05;4.10;;;;;;;5.37;91.42;97488.31;4192103;28;20205;-87
2023/11/09 02:28:54;;;;;;;7.22;4.38;;;;;;;5.36;91.21;97497.00;4204506;28;20215;-87
2023/11/09 02:30:57;;;;;;;6.45;4.38;;;;;;;5.36;91.15;97491.81;4178316;28;20269;-86
2023/11/09 02:33:04;;;;;;;9.38;5.03;;;;;;;5.32;90.79;97490.31;4165498;28;20228;-86
2023/11/09 02:35:07;;;;;;;6.28;4.75;;;;;;;5.31;90.39;97479.16;4188976;28;20821;-87
2023/11/09 02:37:11;;;;;;;8.10;4.22;;;;;;;5.28;91.07;97476.75;4191383;28;21404;-86
2023/11/09 02:39:14;;;;;;;5.20;4.15;;;;;;;5.30;90.49;97477.50;4177871;28;20683;-87
2023/11/09 02:41:19;;;;;;;5.72;4.40;;;;;;;5.31;90.95;97483.50;4195400;28;20234;-86
2023/11/09 02:43:22;;;;;;;5.47;4.40;;;;;;;5.31;90.96;97474.00;4191655;28;20253;-86
2023/11/09 02:45:26;;;;;;;8.70;5.00;;;;;;;5.32;91.66;97483.41;4206579;28;20253;-86
2023/11/09 02:47:29;;;;;;;5.35;4.25;;;;;;;5.31;90.49;97484.31;4191273;28;20203;-86
2023/11/09 02:49:33;;;;;;;7.25;4.70;;;;;;;5.30;91.42;97467.16;4173045;28;20663;-86
2023/11/09 02:51:36;;;;;;;6.00;4.60;;;;;;;5.27;91.18;97467.31;4174913;28;20207;-87
2023/11/09 02:53:40;;;;;;;6.18;4.32;;;;;;;5.25;90.36;97466.59;4175424;28;20901;-86
2023/11/09 02:55:42;;;;;;;6.80;5.07;;;;;;;5.24;90.79;97461.50;4209475;28;20197;-86
2023/11/09 02:57:46;;;;;;;7.82;5.15;;;;;;;5.22;90.76;97458.19;4208931;28;20204;-86
2023/11/09 02:59:49;;;;;;;6.00;4.38;;;;;;;5.22;90.98;97446.09;4190680;28;20251;-86
2023/11/09 03:01:52;;;;;;;4.93;4.00;;;;;;;5.22;91.37;97446.09;4177416;28;20260;-86
2023/11/09 03:03:55;;;;;;;6.72;4.68;;;;;;;5.23;90.66;97450.34;4188282;28;20801;-86
2023/11/09 03:05:59;;;;;;;5.60;4.32;;;;;;;5.22;91.43;97440.91;4193404;28;20210;-86
2023/11/09 03:08:02;;;;;;;5.35;3.92;;;;;;;5.21;91.01;97435.84;4190030;28;20255;-86
2023/11/09 03:10:08;;;;;;;4.78;4.05;;;;;;;5.23;91.22;97434.84;4192710;28;20290;-86
2023/11/09 03:12:12;;;;;;;5.50;4.10;;;;;;;5.23;91.75;97437.44;4178824;28;20207;-86
2023/11/09 03:14:17;;;;;;;6.60;4.20;;;;;;;5.22;90.93;97443.50;4190637;28;20273;-86
2023/11/09 03:16:21;;;;;;;7.53;3.70;;;;;;;5.20;90.62;97434.16;4201512;28;20228;-87
2023/11/09 03:18:24;;;;;;;5.68;3.97;;;;;;;5.19;91.38;97428.19;4192693;28;20210;-87
2023/11/09 03:20:28;;;;;;;5.78;3.88;;;;;;;5.21;91.06;97431.50;4176297;28;20200;-86
2023/11/09 03:22:30;;;;;;;8.60;4.18;;;;;;;5.21;91.31;97436.66;4175205;28;20473;-86
2023/11/09 03:24:34;;;;;;;5.50;3.85;;;;;;;5.19;91.25;97430.75;4171586;28;20254;-86
2023/11/09 03:26:37;;;;;;;6.43;4.03;;;;;;;5.20;90.97;97429.84;4177017;28;20315;-86
2023/11/09 03:28:41;;;;;;;7.30;3.92;;;;;;;5.19;91.78;97425.59;4176631;28;20211;-86
2023/11/09 03:30:45;;;;;;;3.97;3.53;;;;;;;5.21;90.74;97430.66;4176072;28;20281;-86
2023/11/09 03:32:49;;;;;;;6.75;4.45;;;;;;;5.19;91.30;97425.59;4190922;28;20296;-86
2023/11/09 03:34:52;;;;;;;4.72;3.40;;;;;;;5.18;90.86;97426.50;4190200;28;20202;-86
2023/11/09 03:36:55;;;;;;;4.80;3.88;;;;;;;5.18;91.79;97430.84;4208717;28;20202;-87
2023/11/09 03:38:58;;;;;;;4.60;3.47;;;;;;;5.17;91.54;97430.03;4190132;28;20232;-86
2023/11/09 03:41:02;;;;;;;4.82;3.85;;;;;;;5.18;91.79;97429.09;4184979;28;20710;-86
2023/11/09 03:43:05;;;;;;;6.75;3.58;;;;;;;5.19;91.39;97433.34;4188071;28;20198;-86
2023/11/09 03:45:10;;;;;;;5.57;4.13;;;;;;;5.20;91.63;97423.84;4167410;28;20203;-86
2023/11/09 03:47:15;;;;;;;4.93;3.75;;;;;;;5.17;91.21;97419.69;4187668;28;20602;-86
2023/11/09 03:49:19;;;;;;;5.53;3.70;;;;;;;5.17;91.09;97421.41;4196728;28;20206;-86
2023/11/09 03:51:24;;;;;;;6.25;4.03;;;;;;;5.17;91.21;97414.53;4202642;28;20210;-86
2023/11/09 03:53:27;;;;;;;5.35;3.75;;;;;;;5.14;91.37;97412.13;4192894;28;20197;-86
2023/11/09 03:55:30;;;;;;;4.90;3.33;;;;;;;5.17;91.30;97409.34;4194480;28;20301;-86
2023/11/09 03:57:35;;;;;;;6.20;3.78;;;;;;;5.16;90.49;97399.09;4193582;28;20197;-86
2023/11/09 03:59:38;;;;;;;5.75;3.92;;;;;;;5.15;91.40;97389.69;4172545;28;20194;-86
2023/11/09 04:01:42;;;;;;;7.10;4.10;;;;;;;5.12;91.96;97389.03;4190867;28;20264;-86
2023/11/09 04:03:46;;;;;;;5.57;4.15;;;;;;;5.14;91.91;97390.59;4185150;28;20249;-86
2023/11/09 04:05:49;;;;;;;4.90;3.95;;;;;;;5.14;91.57;97381.09;4205977;28;20214;-86
2023/11/09 04:07:53;;;;;;;7.20;4.50;;;;;;;5.13;91.59;97382.03;4193366;28;20204;-86
2023/11/09 04:09:57;;;;;;;7.07;4.70;;;;;;;5.16;90.87;97375.84;4187208;28;20194;-86
2023/11/09 04:12:00;;;;;;;5.32;3.90;;;;;;;5.15;91.70;97382.75;4187326;28;20205;-86
2023/11/09 04:14:03;;;;;;;5.38;3.90;;;;;;;5.19;92.19;97378.25;4193499;28;20212;-86
2023/11/09 04:16:08;;;;;;;6.57;3.45;;;;;;;5.16;91.97;97381.84;4192535;28;20713;-86
2023/11/09 04:18:11;;;;;;;9.48;4.45;;;;;;;5.14;91.23;97381.09;4190838;28;20697;-86
2023/11/09 04:20:16;;;;;;;6.18;4.30;;;;;;;5.13;91.98;97378.63;4175122;28;20211;-85
2023/11/09 04:22:19;;;;;;;5.47;4.05;;;;;;;5.11;91.64;97377.03;4192235;28;20246;-86
2023/11/09 04:24:23;;;;;;;7.40;4.28;;;;;;;5.07;90.77;97380.72;4191327;28;20209;-86
2023/11/09 04:26:26;;;;;;;4.10;3.60;;;;;;;5.04;91.22;97373.16;4183532;28;21279;-86
2023/11/09 04:28:32;;;;;;;4.05;3.28;;;;;;;5.03;91.41;97371.47;4184686;28;20202;-86
2023/11/09 04:30:36;;;;;;;6.90;4.10;;;;;;;5.03;91.54;97369.72;4202307;28;20231;-86
2023/11/09 04:32:40;;;;;;;5.82;4.53;;;;;;;5.03;91.46;97368.91;4188055;28;20666;-86
2023/11/09 04:34:45;;;;;;;5.00;3.78;;;;;;;5.03;90.98;97374.06;4194893;28;20214;-85
2023/11/09 04:36:52;;;;;;;6.57;3.90;;;;;;;5.00;90.54;97366.50;4204398;28;20606;-86
2023/11/09 04:38:57;;;;;;;5.75;4.07;;;;;;;4.98;90.45;97360.59;4165214;28;20714;-86
2023/11/09 04:41:04;;;;;;;4.78;3.85;;;;;;;4.95;90.67;97364.19;4186312;28;20301;-86
2023/11/09 04:43:08;;;;;;;5.53;4.03;;;;;;;4.94;91.68;97359.09;4177411;28;20301;-85
2023/11/09 04:45:13;;;;;;;5.70;3.95;;;;;;;4.94;91.24;97369.44;4198010;28;20283;-86
2023/11/09 04:47:21;;;;;;;4.97;3.90;;;;;;;4.91;91.60;97360.09;4176626;28;20294;-86
2023/11/09 04:49:24;;;;;;;4.75;4.07;;;;;;;4.91;91.21;97361.84;4178677;28;20300;-86
2023/11/09 04:51:30;;;;;;;5.20;3.97;;;;;;;4.93;90.96;97360.00;4186682;28;20256;-86
2023/11/09 04:53:41;;;;;;;5.95;3.97;;;;;;;4.94;90.92;97359.09;4200316;28;20233;-86
2023/11/09 04:55:53;;;;;;;7.05;4.32;;;;;;;4.93;90.67;97354.84;4191889;28;20221;-86
2023/11/09 05:07:35;;;;;;;5.75;3.88;;;;;;;4.88;91.91;97349.94;4174087;28;20218;-86
2023/11/09 05:09:45;;;;;;;6.38;3.83;;;;;;;4.89;92.38;97345.63;4168484;28;20692;-86
2023/11/09 05:11:49;;;;;;;6.20;4.15;;;;;;;4.88;92.27;97333.63;4173425;28;20201;-86
2023/11/09 05:13:52;;;;;;;6.75;4.35;;;;;;;4.90;91.15;97336.94;4181953;28;20376;-87
2023/11/09 05:15:55;;;;;;;8.35;4.13;;;;;;;4.88;92.14;97328.47;4175799;28;21591;-84
2023/11/09 05:17:58;;;;;;;5.15;4.10;;;;;;;4.86;91.45;97325.16;4182741;28;20226;-85
2023/11/09 05:20:05;;;;;;;5.05;3.65;;;;;;;4.88;92.14;97325.88;4196182;28;21273;-85
2023/11/09 05:22:09;;;;;;;5.68;4.30;;;;;;;4.87;91.88;97322.47;4204222;28;20301;-85
2023/11/09 05:24:12;;;;;;;9.88;4.35;;;;;;;4.91;91.37;97323.13;4204384;28;20204;-85
2023/11/09 05:26:17;;;;;;;7.57;4.75;;;;;;;4.91;92.35;97323.13;4181468;28;20255;-85
2023/11/09 05:28:20;;;;;;;7.72;4.70;;;;;;;4.90;92.62;97327.47;4192744;28;20316;-85
2023/11/09 05:30:23;;;;;;;6.38;4.43;;;;;;;4.91;92.55;97334.28;4173778;28;20220;-85
2023/11/09 05:32:27;;;;;;;8.48;5.60;;;;;;;4.93;92.45;97331.59;4210356;28;20205;-86
2023/11/09 05:34:30;;;;;;;9.23;5.28;;;;;;;4.94;91.67;97328.09;4188109;28;20201;-87
2023/11/09 05:36:34;;;;;;;6.20;4.97;;;;;;;4.94;91.92;97325.53;4185584;28;20217;-86
2023/11/09 05:38:39;;;;;;;7.97;4.95;;;;;;;4.91;91.39;97310.19;4204391;28;20201;-85
2023/11/09 05:40:43;;;;;;;11.30;6.75;;;;;;;4.90;91.75;97313.69;4187256;28;20212;-85
2023/11/09 05:42:48;;;;;;;7.40;4.90;;;;;;;4.90;91.09;97316.28;4202318;28;20947;-85
2023/11/09 05:44:52;;;;;;;8.55;5.18;;;;;;;4.90;92.61;97319.72;4186567;28;20281;-85
2023/11/09 05:46:55;;;;;;;7.22;4.88;;;;;;;4.90;91.12;97311.13;4186963;28;20195;-85
2023/11/09 05:48:59;;;;;;;15.25;8.38;;;;;;;4.88;91.38;97313.78;4203829;28;20209;-87
2023/11/09 05:51:02;;;;;;;7.97;5.15;;;;;;;4.93;92.73;97321.25;4166520;28;20231;-88
2023/11/09 05:53:05;;;;;;;7.03;4.45;;;;;;;4.91;91.75;97312.78;4198790;28;20221;-87
2023/11/09 05:55:10;;;;;;;11.35;4.82;;;;;;;4.89;91.55;97307.72;4190347;28;20685;-87
2023/11/09 05:57:13;;;;;;;8.35;5.03;;;;;;;4.91;91.53;97307.63;4205806;28;20197;-87
2023/11/09 05:59:18;;;;;;;7.85;4.25;;;;;;;4.91;91.36;97313.59;4177987;28;20206;-88
2023/11/09 06:01:22;;;;;;;7.65;5.00;;;;;;;4.94;92.25;97313.44;4179692;28;20199;-87
2023/11/09 06:03:25;;;;;;;9.77;4.93;;;;;;;4.96;92.54;97313.34;4173019;28;20665;-87
2023/11/09 06:05:28;;;;;;;8.30;4.60;;;;;;;4.96;92.42;97311.59;4191819;28;20194;-87
2023/11/09 06:07:31;;;;;;;6.20;4.28;;;;;;;4.99;92.47;97315.75;4179290;28;20225;-87
2023/11/09 06:09:35;;;;;;;5.22;4.20;;;;;;;5.01;91.68;97324.25;4195580;28;20211;-87
2023/11/09 06:11:38;;;;;;;8.85;4.43;;;;;;;5.02;93.12;97316.41;4176477;28;20289;-88
2023/11/09 06:13:41;;;;;;;7.57;5.25;;;;;;;5.04;91.61;97321.50;4186118;28;20232;-88
2023/11/09 06:15:47;;;;;;;8.05;4.00;;;;;;;5.02;92.39;97312.97;4175333;28;20225;-87
2023/11/09 06:17:49;;;;;;;5.95;4.55;;;;;;;5.01;92.88;97313.91;4187613;28;20195;-87
2023/11/09 06:19:52;;;;;;;5.95;4.60;;;;;;;5.02;92.46;97316.41;4194663;28;20190;-86
2023/11/09 06:21:56;;;;;;;6.53;4.70;;;;;;;5.01;92.76;97314.75;4187078;28;20203;-86
2023/11/09 06:24:00;;;;;;;8.30;4.50;;;;;;;5.06;91.91;97311.88;4172561;28;20206;-85
2023/11/09 06:26:05;;;;;;;6.18;4.32;;;;;;;5.08;93.16;97315.19;4208166;28;20214;-85
2023/11/09 06:28:09;;;;;;;6.85;4.93;;;;;;;5.09;93.40;97322.03;4191380;28;20738;-85
2023/11/09 06:30:12;;;;;;;11.98;5.03;;;;;;;5.12;93.69;97322.69;4190905;28;20203;-85
2023/11/09 06:32:17;;;;;;;8.38;4.78;;;;;;;5.14;93.18;97318.25;4192054;28;20549;-86
2023/11/09 06:34:20;;;;;;;6.97;4.55;;;;;;;5.16;92.94;97324.16;4192262;28;20253;-85
2023/11/09 06:36:23;;;;;;;6.22;4.88;;;;;;;5.18;93.22;97328.31;4207569;28;20197;-85
2023/11/09 06:38:27;;;;;;;6.60;4.57;;;;;;;5.18;93.52;97317.97;4185692;28;20195;-87
2023/11/09 06:40:31;;;;;;;7.57;5.03;;;;;;;5.19;93.39;97324.81;4174505;28;20657;-87
2023/11/09 06:42:34;;;;;;;7.70;5.03;;;;;;;5.23;93.77;97320.28;4206090;28;20560;-87
2023/11/09 06:44:37;;;;;;;11.02;6.13;;;;;;;5.26;92.93;97315.78;4192823;28;20198;-87
2023/11/09 06:46:40;;;;;;;6.78;5.45;;;;;;;5.27;93.11;97316.59;4176101;28;20210;-87
2023/11/09 06:48:44;;;;;;;9.38;5.45;;;;;;;5.28;93.00;97319.09;4178362;28;20230;-87
2023/11/09 06:50:48;;;;;;;7.15;5.32;;;;;;;5.27;93.10;97312.25;4184282;28;20676;-86
2023/11/09 06:52:55;;;;;;;7.65;4.57;;;;;;;5.29;93.50;97310.44;4193421;28;20290;-86
2023/11/09 06:55:00;;;;;;;7.65;4.75;;;;;;;5.28;93.03;97311.34;4187833;28;20195;-87
2023/11/09 06:57:03;;;;;;;16.10;6.85;;;;;;;5.31;92.85;97313.75;4184904;28;20211;-86
2023/11/09 06:59:06;;;;;;;8.88;5.35;;;;;;;5.31;93.61;97308.56;4188453;28;20199;-87
2023/11/09 07:01:11;;;;;;;9.13;6.28;;;;;;;5.31;93.38;97315.50;4169238;28;20211;-87
2023/11/09 07:03:16;;;;;;;11.38;6.88;;;;;;;5.33;93.54;97309.31;4206672;28;20300;-86
2023/11/09 07:05:22;;;;;;;10.18;5.93;;;;;;;5.36;93.40;97318.63;4166534;28;20613;-86
2023/11/09 07:07:25;;;;;;;10.00;5.65;;;;;;;5.35;93.16;97310.06;4202238;28;20251;-87
2023/11/09 07:09:28;;;;;;;8.35;5.47;;;;;;;5.39;93.30;97311.53;4191830;28;20313;-87
2023/11/09 07:11:32;;;;;;;8.57;4.90;;;;;;;5.41;93.11;97314.00;4193061;28;20780;-87
2023/11/09 07:13:38;;;;;;;6.78;4.82;;;;;;;5.43;93.54;97307.00;4192788;28;20194;-86
2023/11/09 07:15:42;;;;;;;8.13;5.45;;;;;;;5.44;93.94;97322.44;4199280;28;20663;-87
2023/11/09 07:17:45;;;;;;;8.25;5.75;;;;;;;5.50;93.57;97322.03;4191562;28;20218;-87
2023/11/09 07:19:48;;;;;;;8.85;6.63;;;;;;;5.58;93.54;97316.41;4208999;28;20197;-86
2023/11/09 07:21:54;;;;;;;7.75;6.05;;;;;;;5.60;93.74;97318.78;4187905;28;20252;-87
2023/11/09 07:23:59;;;;;;;8.68;6.00;;;;;;;5.69;93.70;97317.41;4204260;28;20681;-87
2023/11/09 07:26:03;;;;;;;8.98;5.97;;;;;;;5.77;94.52;97320.38;4168960;28;20226;-87
2023/11/09 07:28:08;;;;;;;11.00;7.25;;;;;;;5.85;94.80;97333.66;4186533;28;20651;-86
2023/11/09 07:30:12;;;;;;;13.55;9.57;;;;;;;5.90;93.84;97334.22;4201486;28;20242;-86
2023/11/09 07:32:15;;;;;;;9.73;8.20;;;;;;;6.00;94.04;97338.75;4177506;28;20236;-87
2023/11/09 07:34:19;;;;;;;11.45;8.00;;;;;;;6.04;93.81;97337.59;4188045;28;20205;-87
2023/11/09 07:36:22;;;;;;;11.10;6.55;;;;;;;6.05;94.13;97333.28;4191265;28;20273;-87
2023/11/09 07:38:27;;;;;;;9.45;5.85;;;;;;;6.07;93.40;97339.19;4191377;28;20199;-87
2023/11/09 07:40:29;;;;;;;9.85;6.15;;;;;;;6.04;94.15;97347.94;4194799;28;20207;-87
2023/11/09 07:42:33;;;;;;;7.97;5.80;;;;;;;6.05;93.96;97349.63;4205458;28;20197;-86
2023/11/09 07:44:35;;;;;;;10.07;6.15;;;;;;;6.06;94.24;97348.72;4187812;28;20203;-88
2023/11/09 07:46:38;;;;;;;7.78;6.43;;;;;;;6.09;94.38;97354.50;4193667;28;20206;-87
2023/11/09 07:48:41;;;;;;;12.10;7.10;;;;;;;6.09;94.93;97362.28;4182228;28;20224;-87
2023/11/09 07:50:46;;;;;;;7.75;6.40;;;;;;;6.11;95.53;97368.19;4166812;28;20208;-87
2023/11/09 07:52:49;;;;;;;7.00;5.85;;;;;;;6.15;95.95;97380.00;4172105;28;20203;-87
2023/11/09 07:54:54;;;;;;;8.63;6.20;;;;;;;6.17;96.17;97391.09;4205862;28;20295;-87
2023/11/09 07:56:59;;;;;;;9.90;7.32;;;;;;;6.22;95.98;97402.00;4178679;28;20239;-87
2023/11/09 07:59:02;;;;;;;8.10;6.60;;;;;;;6.23;95.75;97401.06;4177131;28;20202;-87
2023/11/09 08:01:06;;;;;;;18.77;11.15;;;;;;;6.26;95.76;97402.66;4171584;28;20215;-87
2023/11/09 08:03:11;;;;;;;14.30;11.90;;;;;;;6.28;95.99;97413.72;4190236;28;20208;-86
2023/11/09 08:05:15;;;;;;;8.70;6.70;;;;;;;6.30;96.21;97419.63;4177450;28;20345;-87
2023/11/09 08:07:19;;;;;;;10.27;7.15;;;;;;;6.31;96.44;97416.94;4189146;28;20221;-87
2023/11/09 08:09:22;;;;;;;10.32;7.55;;;;;;;6.32;96.50;97412.63;4190422;28;20257;-86
2023/11/09 08:11:28;;;;;;;9.35;6.28;;;;;;;6.30;95.20;97409.28;4164539;28;20257;-86
2023/11/09 08:13:33;;;;;;;12.32;7.50;;;;;;;6.27;95.88;97396.53;4183017;28;20699;-86
2023/11/09 08:15:36;;;;;;;8.65;6.40;;;;;;;6.29;95.54;97395.50;4166926;28;20247;-87
2023/11/09 08:17:41;;;;;;;10.38;7.70;;;;;;;6.32;95.62;97399.66;4184957;28;20226;-86
2023/11/09 08:19:46;;;;;;;11.65;7.28;;;;;;;6.36;96.38;97395.94;4206589;28;20197;-86
2023/11/09 08:21:51;;;;;;;13.10;8.90;;;;;;;6.40;95.99;97384.47;4171670;28;20213;-86
2023/11/09 08:23:54;;;;;;;9.40;7.43;;;;;;;6.42;95.71;97383.47;4203804;28;20228;-87
2023/11/09 08:25:57;;;;;;;10.95;7.63;;;;;;;6.48;96.18;97388.25;4189775;28;20201;-87
2023/11/09 08:28:02;;;;;;;10.20;6.80;;;;;;;6.56;95.59;97384.22;4192637;28;20201;-87
2023/11/09 08:30:09;;;;;;;7.03;4.80;;;;;;;6.62;94.69;97378.66;4203337;28;20207;-87
2023/11/09 08:32:12;;;;;;;8.85;5.70;;;;;;;6.73;95.40;97383.16;4184391;28;20299;-87
2023/11/09 08:34:17;;;;;;;11.82;9.02;;;;;;;6.82;95.81;97379.97;4202681;28;20246;-86
2023/11/09 08:36:20;;;;;;;12.73;9.10;;;;;;;6.88;95.65;97379.56;4185872;28;20219;-87
2023/11/09 08:38:23;;;;;;;10.50;9.07;;;;;;;6.97;96.32;97391.94;4205529;28;20214;-87
2023/11/09 08:40:29;;;;;;;12.75;9.02;;;;;;;7.03;96.87;97390.56;4207186;28;20200;-87
2023/11/09 08:42:33;;;;;;;12.52;8.95;;;;;;;7.09;97.07;97394.53;4182632;28;20656;-87
2023/11/09 08:44:38;;;;;;;10.98;8.40;;;;;;;7.11;96.98;97380.56;4202878;28;20235;-86
2023/11/09 08:46:41;;;;;;;12.07;7.50;;;;;;;7.13;97.60;97378.69;4188181;28;20596;-87
2023/11/09 08:48:45;;;;;;;9.70;7.17;;;;;;;7.13;98.35;97381.28;4130183;28;1151888;-87
2023/11/09 08:50:49;;;;;;;12.27;7.32;;;;;;;7.16;97.53;97380.25;4190677;28;20209;-87
2023/11/09 08:52:53;;;;;;;16.23;8.43;;;;;;;7.19;97.67;97390.44;4188398;28;20206;-87
2023/11/09 08:54:57;;;;;;;20.00;8.85;;;;;;;7.23;96.91;97384.94;4173344;28;20214;-87
2023/11/09 08:57:01;;;;;;;16.95;9.60;;;;;;;7.24;97.62;97373.63;4173504;28;20263;-87
2023/11/09 08:59:04;;;;;;;17.45;9.10;;;;;;;7.28;96.53;97380.25;4191647;28;20211;-88
2023/11/09 09:01:17;;;;;;;10.13;8.65;;;;;;;7.35;97.22;97380.69;4202273;28;20221;-86
2023/11/09 09:03:23;;;;;;;13.30;8.57;;;;;;;7.39;98.27;97392.50;4170139;28;20269;-85
2023/11/09 09:05:27;;;;;;;13.07;8.93;;;;;;;7.44;98.01;97395.63;4174742;28;20229;-83
2023/11/09 09:07:30;;;;;;;11.10;8.05;;;;;;;7.48;97.52;97404.88;4200709;28;20202;-84
2023/11/09 09:09:34;;;;;;;11.63;8.48;;;;;;;7.49;97.59;97408.19;4175670;28;20233;-84
2023/11/09 09:11:51;;;;;;;12.57;9.20;;;;;;;7.53;98.27;97406.19;4194155;28;20694;-84
2023/11/09 09:13:54;;;;;;;14.75;10.05;;;;;;;7.57;98.66;97408.50;4210301;28;20211;-84
2023/11/09 09:15:58;;;;;;;15.52;10.30;;;;;;;7.62;97.60;97400.41;4180040;28;20687;-85
2023/11/09 09:18:02;;;;;;;15.32;8.95;;;;;;;7.65;98.65;97400.19;4192631;28;20202;-86
2023/11/09 09:20:07;;;;;;;13.35;8.43;;;;;;;7.69;98.09;97393.88;4208261;28;20193;-84
2023/11/09 09:22:12;;;;;;;14.98;9.48;;;;;;;7.75;97.37;97396.88;4167893;28;20206;-85
2023/11/09 09:24:16;;;;;;;15.38;11.05;;;;;;;7.81;98.24;97396.44;4175445;28;20206;-84
2023/11/09 09:26:21;;;;;;;13.27;9.20;;;;;;;7.84;98.72;97393.63;4188197;28;20237;-84
2023/11/09 09:28:24;;;;;;;11.75;8.75;;;;;;;7.87;98.70;97393.44;4190278;28;20259;-85
2023/11/09 09:30:26;;;;;;;13.27;8.32;;;;;;;7.94;98.69;97396.44;4205737;28;20588;-85
2023/11/09 09:32:30;;;;;;;12.73;8.80;;;;;;;8.02;99.42;97394.97;4175202;28;20257;-86
2023/11/09 09:34:35;;;;;;;11.18;8.25;;;;;;;8.09;99.48;97399.63;4176132;28;20205;-85
2023/11/09 09:36:38;;;;;;;10.35;7.70;;;;;;;8.20;99.78;97399.75;4205686;28;20473;-85
2023/11/09 09:38:42;;;;;;;12.13;8.57;;;;;;;8.28;100.00;97396.59;4190778;28;20280;-85
2023/11/09 09:40:48;;;;;;;11.52;8.50;;;;;;;8.35;100.00;97403.03;4164546;28;20210;-85
2023/11/09 09:42:54;;;;;;;12.48;9.40;;;;;;;8.38;100.00;97395.84;4174066;28;20655;-85
2023/11/09 09:44:57;;;;;;;16.50;10.67;;;;;;;8.42;100.00;97393.84;4204015;28;20196;-85
2023/11/09 09:47:01;;;;;;;12.55;9.30;;;;;;;8.45;100.00;97397.09;4184369;28;20627;-85
2023/11/09 09:49:04;;;;;;;10.40;8.25;;;;;;;8.46;100.00;97393.53;4174656;28;20681;-85
2023/11/09 09:51:13;;;;;;;12.88;8.10;;;;;;;8.49;100.00;97390.72;4202527;28;20229;-85
2023/11/09 09:53:21;;;;;;;11.30;7.88;;;;;;;8.52;100.00;97391.34;4173001;28;20220;-85
2023/11/09 09:55:26;;;;;;;10.50;8.05;;;;;;;8.58;100.00;97393.47;4172323;28;22311;-85
2023/11/09 09:57:30;;;;;;;10.73;7.20;;;;;;;8.63;100.00;97377.56;4191220;28;20206;-86